Time;durP1;ratioP1;P1;durP2;ratioP2;P2;SDS_P1;SDS_P2;PMS_P1;PMS_P2;Temp;Humidity;BMP_temperature;BMP_pressure;BME280_temperature;BME280_humidity;BME280_pressure;Samples;Min_cycle;Max_cycle;Signal;HPM_P1;HPM_P2
2022/01/19 21:05:02;;;;;;;17.50;3.25;;;4.90;99.90;;;;;;4601070;22;1433183;-88
2022/01/19 21:07:28;;;;;;;22.15;4.28;;;4.90;99.90;;;;;;4979058;28;20026;-87
2022/01/19 21:09:54;;;;;;;21.17;3.40;;;4.90;99.90;;;;;;4983138;28;20029;-86
2022/01/19 21:12:20;;;;;;;20.52;4.13;;;4.90;99.90;;;;;;4994391;28;20060;-87
2022/01/19 21:14:46;;;;;;;28.75;4.85;;;5.00;99.90;;;;;;4989881;28;20124;-88
2022/01/19 21:17:13;;;;;;;21.17;4.07;;;5.00;99.90;;;;;;4985401;28;20117;-88
2022/01/19 21:19:39;;;;;;;27.98;4.75;;;5.00;99.90;;;;;;4993473;28;20026;-87
2022/01/19 21:22:05;;;;;;;19.77;3.65;;;5.00;99.90;;;;;;4993357;28;20118;-87
2022/01/19 21:24:30;;;;;;;20.98;3.63;;;5.00;99.90;;;;;;4993622;28;20030;-86
2022/01/19 21:26:56;;;;;;;21.00;3.40;;;4.90;99.90;;;;;;4988847;28;20039;-88
2022/01/19 21:29:22;;;;;;;26.85;4.20;;;4.80;99.90;;;;;;4985669;28;20365;-88
2022/01/19 21:31:47;;;;;;;17.67;3.83;;;4.70;99.90;;;;;;4992478;28;20425;-87
2022/01/19 21:34:13;;;;;;;20.58;3.75;;;4.70;99.90;;;;;;4993564;28;20034;-85
2022/01/19 21:36:40;;;;;;;18.67;3.00;;;4.60;99.90;;;;;;4992881;28;20103;-87
2022/01/19 21:39:05;;;;;;;14.70;3.15;;;4.50;99.90;;;;;;4993118;28;20018;-88
2022/01/19 21:41:31;;;;;;;13.07;2.35;;;4.50;99.90;;;;;;4981644;28;20033;-87
2022/01/19 21:43:57;;;;;;;15.23;2.72;;;4.50;99.90;;;;;;4994992;28;20120;-87
2022/01/19 21:46:22;;;;;;;10.63;1.70;;;4.30;99.90;;;;;;4994048;28;20037;-86
2022/01/19 21:48:50;;;;;;;15.45;3.10;;;4.30;99.90;;;;;;4982521;28;20026;-87
2022/01/19 21:51:20;;;;;;;9.75;2.33;;;4.20;99.90;;;;;;4990708;28;20034;-86
2022/01/19 21:53:46;;;;;;;11.10;2.03;;;4.20;99.90;;;;;;4994239;28;20006;-87
2022/01/19 21:56:12;;;;;;;17.77;4.63;;;4.10;99.90;;;;;;4993120;28;20592;-85
2022/01/19 21:58:38;;;;;;;13.77;2.40;;;4.10;99.90;;;;;;4992409;28;20026;-87
2022/01/19 22:01:05;;;;;;;10.98;2.70;;;4.00;99.90;;;;;;4993033;28;20029;-86
2022/01/19 22:03:31;;;;;;;13.23;2.38;;;4.00;99.90;;;;;;4989869;28;20038;-85
2022/01/19 22:05:56;;;;;;;15.55;3.85;;;3.90;99.90;;;;;;4995279;28;20041;-86
2022/01/19 22:08:22;;;;;;;13.68;2.95;;;4.00;99.90;;;;;;4993878;28;20487;-86
2022/01/19 22:10:48;;;;;;;15.65;3.25;;;3.90;99.90;;;;;;4997557;28;20680;-87
2022/01/19 22:13:14;;;;;;;14.35;3.50;;;3.90;99.90;;;;;;5013896;28;20384;-85
2022/01/19 22:15:41;;;;;;;15.32;3.10;;;3.90;99.90;;;;;;4995662;28;20407;-85
2022/01/19 22:18:07;;;;;;;20.48;3.72;;;3.90;99.90;;;;;;5012710;28;20024;-86
2022/01/19 22:20:33;;;;;;;16.35;2.85;;;3.90;99.90;;;;;;4992221;28;20026;-87
2022/01/19 22:22:59;;;;;;;16.40;3.22;;;3.80;99.90;;;;;;5010622;28;20037;-87
2022/01/19 22:25:24;;;;;;;22.45;4.68;;;3.80;99.90;;;;;;4993094;28;20392;-87
2022/01/19 22:27:51;;;;;;;17.73;3.97;;;3.80;99.90;;;;;;4986239;28;20503;-86
2022/01/19 22:30:17;;;;;;;14.75;3.65;;;3.80;99.90;;;;;;4991936;28;20061;-85
2022/01/19 22:32:43;;;;;;;15.60;3.72;;;3.80;99.90;;;;;;4991696;28;20033;-85
2022/01/19 22:35:09;;;;;;;18.25;3.97;;;3.80;99.90;;;;;;4991752;28;20103;-86
2022/01/19 22:37:36;;;;;;;22.80;5.60;;;3.80;99.90;;;;;;4991355;28;20061;-84
2022/01/19 22:40:05;;;;;;;21.10;3.95;;;3.70;99.90;;;;;;4992085;28;20117;-85
2022/01/19 22:42:31;;;;;;;17.60;4.07;;;3.80;99.90;;;;;;4991904;28;20029;-87
2022/01/19 22:44:56;;;;;;;27.05;4.47;;;3.80;99.90;;;;;;4996228;28;20033;-86
2022/01/19 22:47:22;;;;;;;24.48;5.70;;;3.80;99.90;;;;;;5013248;28;20029;-86
2022/01/19 22:49:48;;;;;;;18.05;4.03;;;3.80;99.90;;;;;;4993557;28;20037;-85
2022/01/19 22:52:14;;;;;;;13.27;3.60;;;3.70;99.90;;;;;;5012630;28;20036;-84
2022/01/19 22:54:40;;;;;;;18.23;3.63;;;3.70;99.90;;;;;;5013282;28;20380;-85
2022/01/19 22:57:06;;;;;;;14.93;3.85;;;3.70;99.90;;;;;;4995878;28;20026;-86
2022/01/19 22:59:32;;;;;;;19.50;4.07;;;3.70;99.90;;;;;;5010858;28;20026;-86
2022/01/19 23:01:58;;;;;;;18.50;3.72;;;3.70;99.90;;;;;;4995698;28;20033;-87
2022/01/19 23:04:23;;;;;;;17.33;4.53;;;3.70;99.90;;;;;;4980967;28;20054;-86
2022/01/19 23:06:50;;;;;;;19.30;3.67;;;3.60;99.90;;;;;;4987729;28;20469;-86
2022/01/19 23:09:17;;;;;;;18.02;3.63;;;3.70;99.90;;;;;;4991724;28;20399;-85
2022/01/19 23:11:47;;;;;;;18.65;3.50;;;3.70;99.90;;;;;;5012731;28;20101;-85
2022/01/19 23:14:16;;;;;;;15.77;3.55;;;3.70;99.90;;;;;;4996062;28;20446;-86
2022/01/19 23:16:47;;;;;;;16.85;3.38;;;3.60;99.90;;;;;;4995415;28;20065;-86
2022/01/19 23:19:15;;;;;;;20.65;3.20;;;3.60;99.90;;;;;;5013028;28;20018;-87
2022/01/19 23:21:42;;;;;;;18.35;3.22;;;3.60;99.90;;;;;;4989400;28;20030;-84
2022/01/19 23:24:08;;;;;;;19.30;3.45;;;3.50;99.90;;;;;;4983589;28;20025;-86
2022/01/19 23:26:42;;;;;;;24.50;5.18;;;3.40;99.90;;;;;;4994665;28;20142;-86
2022/01/19 23:29:08;;;;;;;23.95;4.45;;;3.40;99.90;;;;;;4995573;28;20116;-86
2022/01/19 23:31:34;;;;;;;20.10;3.75;;;3.40;99.90;;;;;;4995951;28;20650;-86
2022/01/19 23:34:02;;;;;;;15.85;4.00;;;3.30;99.90;;;;;;4995931;28;20038;-86
2022/01/19 23:36:32;;;;;;;20.80;4.43;;;3.30;99.90;;;;;;4995773;28;20041;-86
2022/01/19 23:39:15;;;;;;;20.83;3.45;;;3.30;99.90;;;;;;4995615;28;20723;-85
2022/01/19 23:50:14;;;;;;;20.23;3.90;;;3.20;99.90;;;;;;4951548;29;20054;-87
2022/01/19 23:52:41;;;;;;;18.83;4.75;;;3.20;99.90;;;;;;4987305;28;20050;-86
2022/01/19 23:55:07;;;;;;;19.13;3.88;;;3.20;99.90;;;;;;4995314;28;20072;-87
2022/01/19 23:57:42;;;;;;;28.17;4.95;;;3.20;99.90;;;;;;4995861;28;20029;-87
